createdAt,value
2022-11-26T00:02:19.055Z,14.32
2022-11-26T00:04:46.814Z,12.73
2022-11-26T00:07:18.288Z,13.90
2022-11-26T00:09:45.967Z,14.07
2022-11-26T00:12:18.592Z,14.55
2022-11-26T00:14:47.183Z,17.33
2022-11-26T00:17:17.595Z,17.60
2022-11-26T00:19:46.026Z,18.05
2022-11-26T00:22:24.044Z,15.23
2022-11-26T00:25:16.383Z,17.67
2022-11-26T00:30:19.888Z,15.00
2022-11-26T00:32:50.130Z,16.88
2022-11-26T00:35:18.594Z,18.20
2022-11-26T00:37:48.602Z,14.52
2022-11-26T00:40:21.508Z,16.42
2022-11-26T00:42:49.462Z,19.00
2022-11-26T00:45:20.735Z,21.25
2022-11-26T00:47:50.353Z,18.85
2022-11-26T00:50:21.460Z,18.08
2022-11-26T00:52:51.032Z,19.47
2022-11-26T00:55:28.224Z,16.17
2022-11-26T00:57:56.238Z,15.02
2022-11-26T01:00:26.494Z,16.73
2022-11-26T01:02:56.522Z,16.98
2022-11-26T01:05:26.613Z,16.70
2022-11-26T01:07:54.686Z,18.38
2022-11-26T01:10:25.143Z,18.38
2022-11-26T01:12:54.460Z,16.35
2022-11-26T01:15:24.937Z,19.20
2022-11-26T01:17:53.031Z,18.55
2022-11-26T01:20:27.896Z,20.67
2022-11-26T01:22:57.843Z,17.05
2022-11-26T01:25:27.218Z,16.55
2022-11-26T01:44:29.477Z,19.20
2022-11-26T01:46:59.150Z,21.05
2022-11-26T01:49:28.581Z,23.50
2022-11-26T01:52:06.422Z,22.50
2022-11-26T01:54:37.714Z,18.20
2022-11-26T01:57:10.768Z,19.48
2022-11-26T01:59:44.076Z,18.30
2022-11-26T02:02:12.467Z,21.45
2022-11-26T02:04:42.894Z,17.27
2022-11-26T02:07:12.502Z,17.15
2022-11-26T02:09:41.222Z,19.08
2022-11-26T02:12:09.364Z,17.67
2022-11-26T02:14:42.822Z,16.85
2022-11-26T02:17:18.432Z,22.35
2022-11-26T02:20:29.592Z,22.92
2022-11-26T02:23:34.824Z,21.17
2022-11-26T02:26:47.001Z,23.08
2022-11-26T02:29:22.872Z,18.30
2022-11-26T02:31:56.896Z,19.58
2022-11-26T02:34:37.772Z,19.33
2022-11-26T02:37:10.727Z,20.98
2022-11-26T02:39:38.511Z,21.88
2022-11-26T02:42:24.680Z,18.17
2022-11-26T02:44:54.499Z,19.48
2022-11-26T02:47:25.628Z,21.88
2022-11-26T02:49:56.454Z,19.97
2022-11-26T02:52:32.531Z,17.65
2022-11-26T02:55:52.002Z,14.35
2022-11-26T02:58:20.416Z,18.48
2022-11-26T03:00:50.527Z,16.73
2022-11-26T03:03:26.040Z,18.10
2022-11-26T03:05:56.772Z,18.10
2022-11-26T03:08:26.524Z,16.85
2022-11-26T03:10:55.889Z,15.13
2022-11-26T03:13:24.448Z,19.52
2022-11-26T03:15:56.033Z,18.27
2022-11-26T03:18:26.468Z,17.95
2022-11-26T03:21:19.526Z,15.05
2022-11-26T03:23:47.471Z,15.20
2022-11-26T03:26:15.511Z,19.90
2022-11-26T03:28:43.820Z,17.70
2022-11-26T03:31:14.530Z,21.42
2022-11-26T03:33:43.497Z,21.83
2022-11-26T03:36:11.328Z,22.33
2022-11-26T03:38:40.537Z,22.55
2022-11-26T03:41:08.147Z,22.98
2022-11-26T03:43:35.745Z,25.17
2022-11-26T03:46:05.485Z,26.88
2022-11-26T03:48:33.211Z,26.13
2022-11-26T03:51:02.204Z,28.15
2022-11-26T03:53:29.988Z,28.13
2022-11-26T03:55:57.569Z,25.77
2022-11-26T03:58:25.982Z,26.23
2022-11-26T04:00:53.729Z,26.45
2022-11-26T04:03:26.500Z,28.02
2022-11-26T04:05:54.447Z,27.13
2022-11-26T04:08:24.447Z,27.70
2022-11-26T04:10:52.538Z,26.95
2022-11-26T04:13:20.417Z,28.42
2022-11-26T04:15:54.466Z,28.35
2022-11-26T04:18:23.839Z,27.67
2022-11-26T04:20:53.315Z,28.83
2022-11-26T04:23:26.318Z,31.90
2022-11-26T04:25:54.101Z,25.52
2022-11-26T04:28:22.039Z,24.67
2022-11-26T04:30:50.436Z,27.40
2022-11-26T04:33:18.240Z,26.02
2022-11-26T04:35:45.987Z,24.40
2022-11-26T04:38:13.920Z,24.95
2022-11-26T04:40:43.508Z,30.77
2022-11-26T04:43:11.440Z,26.58
2022-11-26T04:45:39.109Z,25.63
2022-11-26T04:48:07.633Z,28.58
2022-11-26T04:50:35.980Z,27.83
2022-11-26T04:53:05.071Z,26.10
2022-11-26T04:55:32.897Z,27.40
2022-11-26T04:58:02.013Z,24.35
2022-11-26T05:00:31.501Z,27.13
2022-11-26T05:03:01.921Z,25.38
2022-11-26T05:08:24.475Z,28.23
2022-11-26T05:10:55.091Z,24.58
2022-11-26T05:13:24.524Z,26.48
2022-11-26T05:15:52.935Z,20.95
2022-11-26T05:18:20.684Z,23.77
2022-11-26T05:20:48.808Z,22.20
2022-11-26T05:23:18.450Z,21.98
2022-11-26T05:25:46.439Z,23.35
2022-11-26T05:28:38.240Z,19.83
2022-11-26T05:31:07.277Z,23.13
2022-11-26T05:33:34.939Z,19.90
2022-11-26T05:36:02.650Z,21.70
2022-11-26T05:38:30.291Z,24.15
2022-11-26T05:41:01.872Z,21.20
2022-11-26T05:45:57.580Z,20.90
2022-11-26T05:48:28.362Z,19.35
2022-11-26T05:50:58.466Z,21.65
2022-11-26T05:53:26.669Z,21.42
2022-11-26T05:55:54.378Z,17.20
2022-11-26T05:58:22.048Z,20.63
2022-11-26T06:00:50.608Z,20.30
2022-11-26T06:03:20.347Z,20.98
2022-11-26T06:05:49.656Z,20.45
2022-11-26T06:08:17.295Z,21.88
2022-11-26T06:10:45.695Z,21.27
2022-11-26T06:13:15.264Z,23.17
2022-11-26T06:15:42.866Z,27.50
2022-11-26T06:18:11.035Z,25.27
2022-11-26T06:20:39.336Z,23.25
2022-11-26T06:23:08.537Z,24.52
2022-11-26T06:25:36.441Z,21.58
2022-11-26T06:28:04.515Z,19.70
2022-11-26T06:30:32.448Z,21.58
2022-11-26T06:33:00.104Z,21.35
2022-11-26T06:35:27.891Z,17.40
2022-11-26T06:37:55.536Z,19.98
2022-11-26T06:40:25.559Z,18.85
2022-11-26T06:42:54.919Z,16.58
2022-11-26T06:45:27.589Z,18.73
2022-11-26T06:47:55.286Z,19.10
2022-11-26T06:50:24.560Z,22.20
2022-11-26T06:52:53.144Z,20.17
2022-11-26T06:55:21.173Z,21.38
2022-11-26T06:57:53.526Z,22.27
2022-11-26T07:00:22.492Z,22.27
2022-11-26T07:02:51.590Z,22.02
2022-11-26T07:05:19.427Z,22.25
2022-11-26T07:07:47.127Z,19.50
2022-11-26T07:10:14.845Z,20.40
2022-11-26T07:12:44.470Z,20.23
2022-11-26T07:15:14.740Z,18.02
2022-11-26T07:17:42.445Z,19.35
2022-11-26T07:20:10.606Z,17.27
2022-11-26T07:22:39.818Z,19.13
2022-11-26T07:25:12.391Z,15.93
2022-11-26T07:27:40.437Z,16.17
2022-11-26T07:30:12.116Z,15.38
2022-11-26T07:32:41.595Z,16.30
2022-11-26T07:35:17.455Z,17.10
2022-11-26T07:37:46.091Z,14.32
2022-11-26T07:40:15.435Z,12.23
2022-11-26T07:42:46.266Z,12.52
2022-11-26T07:45:18.440Z,13.32
2022-11-26T07:47:47.410Z,14.10
2022-11-26T07:50:15.065Z,11.90
2022-11-26T07:52:42.832Z,11.32
2022-11-26T07:55:12.625Z,12.70
2022-11-26T07:57:40.417Z,12.43
2022-11-26T08:00:11.468Z,12.77
2022-11-26T08:02:42.472Z,14.38
2022-11-26T08:05:11.523Z,12.40
2022-11-26T08:07:39.968Z,14.80
2022-11-26T08:10:08.595Z,15.88
2022-11-26T08:12:36.451Z,16.92
2022-11-26T08:15:04.530Z,16.77
2022-11-26T08:17:32.881Z,14.75
2022-11-26T08:20:00.520Z,18.38
2022-11-26T08:22:31.606Z,18.95
2022-11-26T08:24:59.215Z,16.57
2022-11-26T08:27:26.820Z,16.67
2022-11-26T08:29:54.431Z,17.52
2022-11-26T08:32:22.976Z,18.02
2022-11-26T08:34:50.552Z,16.40
2022-11-26T08:37:18.959Z,15.13
2022-11-26T08:39:48.329Z,17.80
2022-11-26T08:42:16.387Z,19.48
2022-11-26T08:44:45.995Z,19.45
2022-11-26T08:47:14.509Z,18.10
2022-11-26T08:49:43.456Z,18.45
2022-11-26T08:52:11.992Z,21.33
2022-11-26T08:54:44.788Z,18.42
2022-11-26T08:57:14.666Z,18.90
2022-11-26T08:59:43.888Z,21.58
2022-11-26T09:02:37.609Z,21.38
2022-11-26T09:05:07.645Z,18.38
2022-11-26T09:07:37.829Z,20.50
2022-11-26T09:10:06.835Z,19.58
2022-11-26T09:12:35.811Z,21.75
2022-11-26T09:15:05.619Z,23.80
2022-11-26T09:17:34.442Z,21.17
2022-11-26T09:20:02.088Z,22.98
2022-11-26T09:22:31.459Z,19.73
2022-11-26T09:25:04.488Z,22.65
2022-11-26T09:27:32.085Z,21.25
2022-11-26T09:30:01.928Z,22.45
2022-11-26T09:32:33.893Z,22.20
2022-11-26T09:35:03.622Z,23.35
2022-11-26T09:37:32.086Z,25.08
2022-11-26T09:40:00.535Z,24.67
2022-11-26T09:42:43.390Z,23.88
2022-11-26T09:45:28.939Z,26.92
2022-11-26T09:47:57.460Z,28.02
2022-11-26T09:50:31.594Z,24.50
2022-11-26T09:53:03.148Z,33.70
2022-11-26T09:55:33.512Z,24.58
2022-11-26T09:58:10.514Z,23.55
2022-11-26T10:00:43.740Z,25.35
2022-11-26T10:03:15.299Z,25.27
2022-11-26T10:05:49.227Z,27.75
2022-11-26T10:08:54.170Z,28.48
2022-11-26T10:11:32.079Z,30.27
2022-11-26T10:14:12.638Z,26.20
2022-11-26T10:16:48.262Z,31.98
2022-11-26T10:19:24.722Z,28.70
2022-11-26T10:21:58.953Z,21.90
2022-11-26T10:24:32.763Z,26.05
2022-11-26T10:27:06.360Z,22.23
2022-11-26T10:29:38.125Z,23.13
2022-11-26T10:34:49.994Z,25.42
2022-11-26T10:37:17.976Z,25.95
2022-11-26T10:39:46.462Z,22.30
2022-11-26T10:42:18.058Z,23.85
2022-11-26T10:44:47.502Z,31.00
2022-11-26T10:47:24.011Z,28.23
2022-11-26T10:49:53.298Z,26.95
2022-11-26T10:52:24.478Z,21.42
2022-11-26T10:55:09.027Z,24.37
2022-11-26T10:57:43.926Z,25.95
2022-11-26T11:00:37.989Z,25.23
2022-11-26T11:03:38.568Z,23.17
2022-11-26T11:06:22.926Z,22.92
2022-11-26T11:08:52.475Z,21.50
2022-11-26T11:11:22.572Z,24.67
2022-11-26T11:13:50.634Z,23.88
2022-11-26T11:16:28.583Z,24.15
2022-11-26T11:19:05.554Z,25.70
2022-11-26T11:21:36.247Z,25.65
2022-11-26T11:24:10.828Z,24.40
2022-11-26T11:26:42.217Z,21.33
2022-11-26T11:29:25.563Z,23.08
2022-11-26T11:31:53.582Z,26.38
2022-11-26T11:34:34.216Z,21.00
2022-11-26T11:37:03.841Z,25.90
2022-11-26T11:39:33.978Z,24.23
2022-11-26T11:42:05.453Z,19.90
2022-11-26T11:44:39.707Z,25.55
2022-11-26T11:47:34.492Z,19.13
2022-11-26T11:50:19.441Z,25.35
2022-11-26T11:52:59.418Z,23.83
2022-11-26T11:55:42.745Z,22.45
2022-11-26T11:58:38.339Z,21.27
2022-11-26T12:01:16.810Z,20.88
2022-11-26T12:04:07.270Z,21.73
2022-11-26T12:09:22.469Z,24.63
2022-11-26T12:11:57.633Z,23.58
2022-11-26T12:14:34.470Z,21.33
2022-11-26T12:17:07.528Z,23.50
2022-11-26T12:19:40.374Z,19.98
2022-11-26T12:22:17.598Z,25.63
2022-11-26T12:24:50.144Z,21.95
2022-11-26T12:29:57.326Z,22.02
2022-11-26T12:32:32.110Z,22.42
2022-11-26T12:35:05.778Z,23.60
2022-11-26T12:37:39.633Z,23.30
2022-11-26T12:40:17.479Z,23.05
2022-11-26T12:42:53.452Z,22.40
2022-11-26T12:45:45.604Z,19.85
2022-11-26T12:48:49.089Z,20.30
2022-11-26T12:51:27.493Z,19.60
2022-11-26T12:54:07.706Z,20.67
2022-11-26T12:56:42.599Z,17.27
2022-11-26T12:59:20.454Z,22.67
2022-11-26T13:01:48.651Z,20.70
2022-11-26T13:07:31.578Z,19.33
2022-11-26T13:10:20.619Z,17.73
2022-11-26T13:12:56.533Z,15.50
2022-11-26T13:15:29.250Z,16.50
2022-11-26T13:18:00.164Z,14.93
2022-11-26T13:20:41.476Z,18.52
2022-11-26T13:23:39.094Z,15.10
2022-11-26T13:26:41.689Z,19.30
2022-11-26T13:29:30.539Z,16.08
2022-11-26T13:32:13.222Z,12.60
2022-11-26T13:35:01.978Z,18.55
2022-11-26T13:37:47.827Z,14.20
2022-11-26T13:40:38.114Z,15.10
2022-11-26T13:43:41.469Z,13.48
2022-11-26T13:46:22.344Z,16.40
2022-11-26T13:48:59.109Z,15.83
2022-11-26T13:51:35.174Z,15.55
2022-11-26T13:54:09.611Z,14.68
2022-11-26T13:56:39.763Z,15.60
2022-11-26T13:59:15.263Z,14.07
2022-11-26T14:01:44.525Z,16.15
2022-11-26T14:04:14.631Z,14.57
2022-11-26T14:07:17.913Z,11.75
2022-11-26T14:09:51.780Z,19.40
2022-11-26T14:12:20.676Z,11.82
2022-11-26T14:14:51.522Z,15.45
2022-11-26T14:17:47.342Z,13.02
2022-11-26T14:20:14.979Z,12.30
2022-11-26T14:22:42.716Z,15.80
2022-11-26T14:25:15.683Z,11.27
2022-11-26T14:27:53.005Z,13.45
2022-11-26T14:30:25.461Z,13.25
2022-11-26T14:33:12.185Z,13.30
2022-11-26T14:35:41.484Z,10.82
2022-11-26T14:38:35.521Z,12.82
2022-11-26T14:41:04.101Z,13.73
2022-11-26T14:43:31.743Z,11.98
2022-11-26T14:46:06.677Z,17.83
2022-11-26T14:48:38.158Z,15.30
2022-11-26T14:51:09.303Z,12.18
2022-11-26T14:53:41.638Z,14.43
2022-11-26T14:56:11.084Z,16.45
2022-11-26T14:58:43.460Z,12.25
2022-11-26T15:01:36.858Z,13.90
2022-11-26T15:04:08.458Z,17.17
2022-11-26T15:06:39.153Z,15.38
2022-11-26T15:09:10.855Z,11.48
2022-11-26T15:11:42.677Z,11.32
2022-11-26T15:14:25.745Z,12.73
2022-11-26T15:16:59.088Z,13.27
2022-11-26T15:19:31.523Z,13.60
2022-11-26T15:21:59.276Z,10.70
2022-11-26T15:24:27.980Z,14.02
2022-11-26T15:26:55.643Z,11.55
2022-11-26T15:29:30.701Z,13.38
2022-11-26T15:31:59.327Z,10.65
2022-11-26T15:34:30.319Z,13.55
2022-11-26T15:36:58.148Z,12.63
2022-11-26T15:39:29.074Z,11.90
2022-11-26T15:42:02.345Z,10.85
2022-11-26T15:44:39.054Z,12.60
2022-11-26T15:47:19.385Z,10.90
2022-11-26T15:49:52.528Z,14.60
2022-11-26T15:52:23.498Z,11.07
2022-11-26T15:55:16.397Z,14.10
2022-11-26T15:57:44.783Z,12.50
2022-11-26T16:00:26.496Z,13.52
2022-11-26T16:02:56.077Z,12.32
2022-11-26T16:05:31.568Z,13.30
2022-11-26T16:08:01.677Z,11.45
2022-11-26T16:10:36.689Z,11.80
2022-11-26T16:13:18.966Z,11.15
2022-11-26T16:15:51.664Z,11.45
2022-11-26T16:18:22.079Z,11.63
2022-11-26T16:20:51.115Z,13.90
2022-11-26T16:23:27.887Z,13.68
2022-11-26T16:26:15.944Z,12.27
2022-11-26T16:28:44.593Z,13.73
2022-11-26T16:31:12.777Z,15.18
2022-11-26T16:33:40.737Z,12.40
2022-11-26T16:36:20.137Z,10.90
2022-11-26T16:38:48.459Z,11.30
2022-11-26T16:41:17.614Z,15.68
2022-11-26T16:43:45.352Z,12.18
2022-11-26T16:46:15.837Z,13.35
2022-11-26T16:48:44.743Z,11.02
2022-11-26T16:51:12.871Z,14.23
2022-11-26T16:53:42.162Z,10.10
2022-11-26T16:56:19.578Z,11.05
2022-11-26T16:58:48.504Z,12.40
2022-11-26T17:01:16.073Z,12.07
2022-11-26T17:03:44.648Z,10.95
2022-11-26T17:06:15.336Z,13.52
2022-11-26T17:11:32.443Z,12.75
2022-11-26T17:14:00.092Z,10.65
2022-11-26T17:16:29.031Z,14.48
2022-11-26T17:18:56.662Z,12.82
2022-11-26T17:21:24.332Z,11.40
2022-11-26T17:23:53.479Z,12.52
2022-11-26T17:26:24.015Z,10.85
2022-11-26T17:28:52.563Z,11.63
2022-11-26T17:31:20.375Z,11.57
2022-11-26T17:33:48.145Z,12.27
2022-11-26T17:36:19.180Z,14.57
2022-11-26T17:38:46.961Z,15.97
2022-11-26T17:41:16.781Z,9.93
2022-11-26T17:43:45.602Z,12.10
2022-11-26T17:46:16.504Z,9.07
2022-11-26T17:48:44.336Z,11.30
2022-11-26T17:51:15.222Z,11.95
2022-11-26T17:53:44.116Z,13.43
2022-11-26T17:56:21.403Z,13.45
2022-11-26T17:58:49.461Z,11.23
2022-11-26T18:01:18.691Z,11.15
2022-11-26T18:03:47.510Z,11.02
2022-11-26T18:06:17.359Z,13.18
2022-11-26T18:08:45.926Z,15.32
2022-11-26T18:11:15.371Z,12.68
2022-11-26T18:13:45.162Z,9.98
2022-11-26T18:16:12.831Z,11.82
2022-11-26T18:18:40.463Z,10.73
2022-11-26T18:21:08.147Z,13.63
2022-11-26T18:23:35.851Z,10.52
2022-11-26T18:26:03.490Z,12.45
2022-11-26T18:28:31.112Z,13.73
2022-11-26T18:31:00.652Z,10.98
2022-11-26T18:33:28.440Z,12.10
2022-11-26T18:35:56.207Z,11.85
2022-11-26T18:38:28.685Z,8.95
2022-11-26T18:41:00.008Z,12.13
2022-11-26T18:43:29.472Z,8.88
2022-11-26T18:45:57.141Z,15.70
2022-11-26T18:48:26.218Z,10.32
2022-11-26T18:50:58.558Z,12.30
2022-11-26T18:53:27.771Z,10.63
2022-11-26T18:55:55.820Z,8.75
2022-11-26T18:58:24.110Z,9.75
2022-11-26T19:00:54.140Z,8.27
2022-11-26T19:03:21.951Z,10.30
2022-11-26T19:05:53.159Z,10.93
2022-11-26T19:08:22.160Z,8.80
2022-11-26T19:10:50.210Z,10.50
2022-11-26T19:13:17.993Z,11.10
2022-11-26T19:15:46.942Z,10.50
2022-11-26T19:18:15.384Z,14.15
2022-11-26T19:20:51.336Z,12.90
2022-11-26T19:23:24.186Z,9.88
2022-11-26T19:25:53.525Z,10.75
2022-11-26T19:28:22.492Z,10.70
2022-11-26T19:30:59.151Z,10.63
2022-11-26T19:33:26.895Z,8.73
2022-11-26T19:35:56.172Z,9.73
2022-11-26T19:38:24.625Z,10.70
2022-11-26T19:40:57.220Z,10.32
2022-11-26T19:43:26.245Z,11.18
2022-11-26T19:46:01.685Z,9.38
2022-11-26T19:48:29.460Z,11.35
2022-11-26T19:50:59.316Z,9.65
2022-11-26T19:53:27.491Z,9.68
2022-11-26T19:55:59.558Z,10.55
2022-11-26T19:58:28.168Z,10.50
2022-11-26T20:00:56.592Z,8.88
2022-11-26T20:03:24.917Z,10.27
2022-11-26T20:05:53.293Z,13.32
2022-11-26T20:08:23.519Z,9.85
2022-11-26T20:10:51.264Z,9.63
2022-11-26T20:13:18.852Z,9.82
2022-11-26T20:15:47.438Z,10.77
2022-11-26T20:18:15.677Z,8.90
2022-11-26T20:20:43.510Z,9.50
2022-11-26T20:23:12.240Z,8.93
2022-11-26T20:25:41.360Z,9.10
2022-11-26T20:28:09.994Z,10.68
2022-11-26T20:30:38.867Z,11.50
2022-11-26T20:33:06.555Z,10.18
2022-11-26T20:35:34.231Z,10.43
2022-11-26T20:38:01.878Z,11.07
2022-11-26T20:40:29.540Z,10.63
2022-11-26T20:42:58.564Z,11.35
2022-11-26T20:45:26.207Z,11.35
2022-11-26T20:47:53.889Z,11.93
2022-11-26T20:50:21.498Z,11.82
2022-11-26T20:52:49.182Z,9.90
2022-11-26T20:55:21.668Z,15.02
2022-11-26T20:57:50.326Z,8.70
2022-11-26T21:00:24.846Z,15.52
2022-11-26T21:02:55.152Z,13.35
2022-11-26T21:05:23.095Z,9.63
2022-11-26T21:07:51.743Z,9.80
2022-11-26T21:10:21.135Z,12.93
2022-11-26T21:12:49.838Z,8.38
2022-11-26T21:15:19.031Z,9.57
2022-11-26T21:17:46.797Z,9.95
2022-11-26T21:20:15.499Z,11.60
2022-11-26T21:22:43.310Z,11.48
2022-11-26T21:25:10.963Z,10.85
2022-11-26T21:27:38.990Z,9.38
2022-11-26T21:30:08.018Z,10.10
2022-11-26T21:32:37.187Z,12.82
2022-11-26T21:35:05.260Z,11.38
2022-11-26T21:37:32.954Z,11.95
2022-11-26T21:40:00.561Z,11.55
2022-11-26T21:42:28.327Z,12.25
2022-11-26T21:44:55.986Z,14.13
2022-11-26T21:47:23.547Z,10.40
2022-11-26T21:49:52.669Z,11.10
2022-11-26T21:52:20.286Z,9.98
2022-11-26T21:54:47.923Z,12.65
2022-11-26T21:57:16.547Z,12.75
2022-11-26T21:59:45.197Z,9.45
2022-11-26T22:02:13.559Z,10.90
2022-11-26T22:04:41.430Z,13.27
2022-11-26T22:07:10.764Z,10.88
2022-11-26T22:09:38.859Z,14.23
2022-11-26T22:12:08.155Z,13.35
2022-11-26T22:14:36.191Z,11.23
2022-11-26T22:17:04.539Z,11.77
2022-11-26T22:19:32.336Z,11.38
2022-11-26T22:21:59.947Z,14.15
2022-11-26T22:24:28.923Z,11.75
2022-11-26T22:26:56.712Z,11.43
2022-11-26T22:29:24.523Z,7.93
2022-11-26T22:31:52.230Z,10.95
2022-11-26T22:34:21.832Z,10.32
2022-11-26T22:36:49.516Z,10.88
2022-11-26T22:39:19.946Z,8.82
2022-11-26T22:41:49.555Z,8.75
2022-11-26T22:44:18.080Z,9.82
2022-11-26T22:46:46.176Z,11.23
2022-11-26T22:49:16.001Z,11.02
2022-11-26T22:51:43.590Z,9.48
2022-11-26T22:54:13.654Z,10.88
2022-11-26T22:56:41.491Z,10.45
2022-11-26T22:59:13.920Z,10.63
2022-11-26T23:01:42.444Z,10.73
2022-11-26T23:04:11.610Z,11.35
2022-11-26T23:06:40.040Z,10.30
2022-11-26T23:09:09.454Z,8.93
2022-11-26T23:11:39.634Z,11.15
2022-11-26T23:14:11.762Z,10.88
2022-11-26T23:16:42.518Z,7.80
2022-11-26T23:19:10.711Z,9.45
2022-11-26T23:21:42.621Z,9.30
2022-11-26T23:24:10.865Z,11.80
2022-11-26T23:26:40.345Z,12.32
2022-11-26T23:29:10.894Z,8.73
2022-11-26T23:31:40.694Z,9.35
2022-11-26T23:34:09.513Z,9.40
2022-11-26T23:36:39.475Z,8.85
2022-11-26T23:39:10.406Z,9.10
2022-11-26T23:41:38.206Z,9.48
2022-11-26T23:44:07.661Z,8.20
2022-11-26T23:46:36.653Z,10.80
2022-11-26T23:49:04.857Z,9.98
2022-11-26T23:51:33.644Z,12.45
2022-11-26T23:54:01.470Z,7.97
2022-11-26T23:56:30.978Z,11.30
2022-11-26T23:59:01.483Z,9.73
